createdAt,value
2018-11-05T00:00:57.490Z,85.89
2018-11-05T00:03:26.192Z,85.85
2018-11-05T00:05:54.842Z,86.11
2018-11-05T00:08:23.300Z,85.96
2018-11-05T00:10:51.774Z,86.29
2018-11-05T00:13:20.470Z,86.12
2018-11-05T00:15:49.172Z,86.22
2018-11-05T00:18:17.886Z,86.20
2018-11-05T00:20:47.492Z,86.38
2018-11-05T00:23:16.577Z,86.29
2018-11-05T00:25:45.032Z,86.32
2018-11-05T00:28:13.509Z,86.35
2018-11-05T00:30:42.666Z,86.19
2018-11-05T00:33:11.310Z,86.24
2018-11-05T00:35:40.950Z,86.41
2018-11-05T00:38:09.386Z,86.01
2018-11-05T00:40:37.854Z,86.28
2018-11-05T00:43:06.748Z,86.59
2018-11-05T00:45:35.617Z,86.56
2018-11-05T00:48:04.272Z,86.52
2018-11-05T00:50:32.905Z,86.71
2018-11-05T00:53:01.437Z,86.69
2018-11-05T00:55:30.004Z,86.57
2018-11-05T00:57:58.913Z,86.46
2018-11-05T01:00:27.462Z,86.53
2018-11-05T01:02:55.989Z,86.86
2018-11-05T01:05:24.529Z,86.68
2018-11-05T01:07:53.202Z,86.71
2018-11-05T01:10:22.759Z,86.65
2018-11-05T01:12:51.321Z,86.49
2018-11-05T01:15:21.018Z,86.53
2018-11-05T01:17:49.434Z,86.73
2018-11-05T01:20:18.023Z,86.79
2018-11-05T01:22:46.596Z,86.90
2018-11-05T01:25:15.022Z,87.10
2018-11-05T01:27:43.532Z,86.91
2018-11-05T01:30:13.267Z,87.04
2018-11-05T01:32:42.754Z,86.80
2018-11-05T01:35:12.470Z,86.84
2018-11-05T01:37:41.257Z,86.91
2018-11-05T01:40:12.457Z,87.21
2018-11-05T01:42:40.950Z,87.01
2018-11-05T01:45:10.759Z,87.00
2018-11-05T01:47:39.696Z,86.80
2018-11-05T01:50:10.331Z,87.03
2018-11-05T01:52:39.853Z,87.21
2018-11-05T01:55:09.104Z,87.47
2018-11-05T01:57:38.412Z,87.27
2018-11-05T02:00:10.666Z,87.64
2018-11-05T02:02:39.250Z,87.43
2018-11-05T02:05:08.538Z,87.48
2018-11-05T02:07:37.194Z,87.43
2018-11-05T02:10:08.983Z,87.52
2018-11-05T02:12:37.402Z,87.57
2018-11-05T02:15:07.452Z,88.00
2018-11-05T02:17:36.136Z,87.54
2018-11-05T02:20:05.166Z,88.02
2018-11-05T02:22:34.192Z,87.83
2018-11-05T02:25:03.276Z,87.60
2018-11-05T02:27:31.996Z,87.75
2018-11-05T02:30:00.532Z,87.53
2018-11-05T02:32:28.984Z,87.54
2018-11-05T02:34:57.424Z,87.33
2018-11-05T02:37:26.678Z,87.36
2018-11-05T02:39:55.452Z,87.50
2018-11-05T02:42:24.000Z,87.04
2018-11-05T02:44:53.897Z,87.26
2018-11-05T02:47:22.448Z,87.55
2018-11-05T02:49:50.880Z,87.73
2018-11-05T02:52:31.272Z,87.61
2018-11-05T02:54:59.861Z,87.71
2018-11-05T02:57:28.318Z,87.86
2018-11-05T02:59:56.914Z,87.60
2018-11-05T03:02:25.462Z,87.40
2018-11-05T03:04:53.893Z,87.55
2018-11-05T03:07:22.358Z,87.36
2018-11-05T03:09:51.058Z,87.40
2018-11-05T03:12:19.716Z,87.49
2018-11-05T03:14:48.339Z,87.52
2018-11-05T03:17:16.931Z,87.20
2018-11-05T03:19:45.676Z,87.27
2018-11-05T03:22:14.189Z,87.81
2018-11-05T03:24:42.921Z,87.39
2018-11-05T03:27:11.909Z,87.64
2018-11-05T03:29:40.354Z,87.27
2018-11-05T03:32:08.953Z,87.42
2018-11-05T03:34:37.500Z,87.18
2018-11-05T03:37:06.825Z,87.48
2018-11-05T03:39:35.416Z,87.14
2018-11-05T03:42:03.893Z,87.42
2018-11-05T03:44:32.412Z,87.45
2018-11-05T03:47:01.564Z,87.37
2018-11-05T03:49:30.473Z,87.16
2018-11-05T03:51:59.718Z,86.75
2018-11-05T03:54:28.571Z,87.22
2018-11-05T03:56:57.110Z,86.99
2018-11-05T03:59:26.368Z,87.34
2018-11-05T04:01:54.847Z,86.84
2018-11-05T04:04:23.286Z,87.16
2018-11-05T04:06:51.914Z,87.13
2018-11-05T04:09:20.371Z,87.36
2018-11-05T04:11:48.903Z,87.03
2018-11-05T04:14:18.084Z,87.02
2018-11-05T04:16:46.789Z,86.77
2018-11-05T04:19:15.251Z,86.80
2018-11-05T04:21:45.988Z,86.70
2018-11-05T04:24:15.587Z,86.92
2018-11-05T04:26:45.398Z,86.91
2018-11-05T04:29:14.539Z,86.75
2018-11-05T04:31:43.416Z,86.92
2018-11-05T04:34:12.052Z,86.59
2018-11-05T04:36:41.873Z,86.46
2018-11-05T04:39:12.999Z,86.51
2018-11-05T04:41:42.568Z,86.46
2018-11-05T04:44:11.285Z,86.49
2018-11-05T04:46:40.636Z,86.43
2018-11-05T04:49:09.565Z,86.46
2018-11-05T04:51:38.745Z,86.42
2018-11-05T04:54:08.228Z,86.68
2018-11-05T04:56:36.987Z,86.55
2018-11-05T04:59:06.451Z,86.46
2018-11-05T05:01:35.976Z,86.35
2018-11-05T05:04:04.559Z,86.60
2018-11-05T05:06:33.077Z,86.49
2018-11-05T05:09:02.402Z,86.67
2018-11-05T05:11:30.980Z,86.68
2018-11-05T05:13:59.553Z,86.58
2018-11-05T05:16:28.204Z,86.92
2018-11-05T05:18:57.550Z,86.79
2018-11-05T05:21:26.281Z,86.80
2018-11-05T05:23:54.752Z,86.90
2018-11-05T05:26:23.416Z,86.99
2018-11-05T05:28:51.901Z,87.34
2018-11-05T05:31:20.365Z,86.77
2018-11-05T05:33:48.962Z,86.75
2018-11-05T05:36:17.468Z,87.43
2018-11-05T05:38:46.145Z,86.81
2018-11-05T05:41:14.910Z,87.21
2018-11-05T05:43:44.134Z,87.00
2018-11-05T05:46:12.747Z,86.83
2018-11-05T05:48:41.248Z,87.17
2018-11-05T05:51:09.965Z,87.06
2018-11-05T05:53:38.549Z,87.41
2018-11-05T05:56:07.180Z,87.19
2018-11-05T05:58:36.828Z,86.88
2018-11-05T06:01:06.333Z,86.87
2018-11-05T06:03:34.855Z,86.79
2018-11-05T06:06:03.565Z,86.90
2018-11-05T06:08:32.114Z,86.95
2018-11-05T06:11:00.874Z,86.39
2018-11-05T06:13:29.308Z,86.48
2018-11-05T06:18:34.186Z,86.64
2018-11-05T06:21:02.649Z,86.70
2018-11-05T06:23:31.100Z,86.84
2018-11-05T06:26:00.084Z,87.23
2018-11-05T06:28:35.470Z,86.93
2018-11-05T06:31:03.936Z,87.44
2018-11-05T06:33:32.371Z,87.28
2018-11-05T06:36:01.119Z,87.55
2018-11-05T06:38:29.736Z,87.66
2018-11-05T06:41:01.521Z,87.68
2018-11-05T06:43:30.047Z,87.62
2018-11-05T06:45:58.703Z,87.85
2018-11-05T06:50:57.856Z,87.67
2018-11-05T06:53:26.375Z,88.33
2018-11-05T06:55:54.911Z,88.43
2018-11-05T06:58:23.396Z,88.76
2018-11-05T07:00:51.898Z,88.88
2018-11-05T07:03:20.602Z,88.57
2018-11-05T07:05:49.250Z,88.61
2018-11-05T07:08:17.760Z,88.81
2018-11-05T07:10:46.632Z,88.73
2018-11-05T07:13:15.266Z,88.27
2018-11-05T07:15:43.801Z,88.30
2018-11-05T07:18:13.607Z,88.49
2018-11-05T07:20:42.268Z,88.44
2018-11-05T07:23:10.812Z,88.48
2018-11-05T07:25:39.965Z,88.28
2018-11-05T07:28:08.915Z,88.27
2018-11-05T07:30:37.502Z,88.22
2018-11-05T07:33:06.275Z,88.41
2018-11-05T07:35:35.006Z,88.14
2018-11-05T07:38:03.580Z,88.60
2018-11-05T07:40:32.216Z,88.03
2018-11-05T07:43:00.685Z,88.09
2018-11-05T07:45:29.164Z,88.07
2018-11-05T07:47:57.778Z,87.90
2018-11-05T07:53:01.219Z,88.08
2018-11-05T07:55:29.776Z,87.60
2018-11-05T07:57:58.656Z,87.75
2018-11-05T08:00:32.524Z,87.47
2018-11-05T08:03:01.135Z,87.28
2018-11-05T08:05:29.745Z,87.44
2018-11-05T08:07:58.963Z,87.40
2018-11-05T08:10:27.689Z,87.30
2018-11-05T08:12:56.473Z,86.95
2018-11-05T08:15:25.956Z,86.78
2018-11-05T08:17:54.957Z,86.52
2018-11-05T08:20:23.594Z,87.00
2018-11-05T08:22:52.069Z,86.50
2018-11-05T08:25:20.664Z,86.63
2018-11-05T08:27:49.225Z,86.35
2018-11-05T08:30:21.393Z,86.52
2018-11-05T08:32:49.875Z,86.22
2018-11-05T08:35:18.860Z,86.43
2018-11-05T08:37:47.977Z,85.97
2018-11-05T08:40:19.024Z,85.89
2018-11-05T08:42:48.364Z,85.43
2018-11-05T08:45:18.804Z,85.75
2018-11-05T08:50:23.539Z,86.01
2018-11-05T08:52:52.662Z,85.75
2018-11-05T08:55:25.207Z,85.42
2018-11-05T08:57:57.131Z,85.22
2018-11-05T09:00:31.228Z,85.46
2018-11-05T09:02:59.684Z,85.27
2018-11-05T09:05:28.457Z,84.92
2018-11-05T09:07:57.180Z,85.05
2018-11-05T09:10:26.053Z,84.99
2018-11-05T09:12:56.097Z,84.84
2018-11-05T09:15:25.311Z,84.84
2018-11-05T09:17:53.942Z,85.08
2018-11-05T09:20:22.709Z,84.87
2018-11-05T09:22:51.961Z,84.69
2018-11-05T09:25:20.495Z,84.79
2018-11-05T09:27:48.995Z,84.51
2018-11-05T09:30:19.772Z,84.63
2018-11-05T09:32:49.522Z,84.46
2018-11-05T09:35:18.262Z,84.21
2018-11-05T09:37:46.956Z,84.42
2018-11-05T09:40:24.929Z,83.97
2018-11-05T09:42:53.916Z,84.00
2018-11-05T09:45:23.970Z,83.82
2018-11-05T09:47:52.493Z,83.47
2018-11-05T09:50:21.230Z,83.65
2018-11-05T09:52:49.767Z,83.76
2018-11-05T09:55:19.349Z,83.57
2018-11-05T09:57:48.519Z,83.26
2018-11-05T10:00:25.919Z,83.44
2018-11-05T10:02:59.790Z,82.95
2018-11-05T10:05:28.250Z,82.79
2018-11-05T10:07:56.836Z,82.49
2018-11-05T10:10:26.121Z,82.61
2018-11-05T10:12:54.570Z,82.33
2018-11-05T10:15:23.154Z,82.26
2018-11-05T10:17:51.859Z,82.13
2018-11-05T10:20:21.969Z,82.29
2018-11-05T10:22:50.453Z,81.83
2018-11-05T10:25:19.806Z,81.73
2018-11-05T10:27:49.200Z,81.33
2018-11-05T10:30:20.185Z,81.31
2018-11-05T10:32:48.775Z,81.17
2018-11-05T10:35:18.691Z,80.86
2018-11-05T10:37:47.197Z,80.24
2018-11-05T10:42:53.833Z,80.00
2018-11-05T10:45:22.288Z,79.91
2018-11-05T10:47:51.770Z,80.03
2018-11-05T10:50:21.122Z,79.98
2018-11-05T10:52:50.961Z,79.59
2018-11-05T10:55:19.432Z,79.89
2018-11-05T10:57:48.138Z,79.81
2018-11-05T11:00:26.145Z,79.76
2018-11-05T11:03:00.085Z,79.87
2018-11-05T11:05:30.238Z,79.08
2018-11-05T11:08:00.432Z,78.91
2018-11-05T11:10:29.668Z,78.74
2018-11-05T11:12:58.489Z,78.53
2018-11-05T11:15:27.025Z,79.39
2018-11-05T11:17:57.119Z,78.78
2018-11-05T11:20:25.800Z,78.32
2018-11-05T11:22:54.616Z,78.39
2018-11-05T11:25:23.492Z,78.43
2018-11-05T11:27:52.225Z,78.59
2018-11-05T11:30:20.628Z,77.54
2018-11-05T11:32:50.054Z,77.36
2018-11-05T11:35:18.697Z,77.29
2018-11-05T11:37:47.257Z,77.11
2018-11-05T11:40:18.191Z,77.34
2018-11-05T11:42:47.715Z,76.89
2018-11-05T11:45:17.296Z,77.17
2018-11-05T11:47:45.797Z,76.84
2018-11-05T11:50:15.570Z,76.72
2018-11-05T11:52:44.311Z,76.74
2018-11-05T11:55:15.064Z,76.39
2018-11-05T11:57:44.296Z,77.06
2018-11-05T12:00:18.324Z,76.99
2018-11-05T12:02:47.723Z,76.98
2018-11-05T12:05:16.383Z,76.00
2018-11-05T12:07:44.949Z,76.22
2018-11-05T12:10:18.890Z,75.98
2018-11-05T12:12:48.439Z,75.52
2018-11-05T12:15:18.240Z,75.79
2018-11-05T12:17:47.890Z,75.30
2018-11-05T12:20:17.851Z,76.14
2018-11-05T12:22:47.264Z,75.42
2018-11-05T12:25:15.870Z,76.38
2018-11-05T12:27:44.577Z,76.16
2018-11-05T12:30:17.613Z,75.86
2018-11-05T12:32:47.195Z,76.61
2018-11-05T12:35:16.392Z,76.33
2018-11-05T12:37:46.236Z,76.01
2018-11-05T12:40:16.276Z,75.35
2018-11-05T12:42:46.052Z,76.29
2018-11-05T12:45:14.572Z,76.29
2018-11-05T12:47:43.852Z,75.72
2018-11-05T12:50:15.190Z,76.53
2018-11-05T12:52:45.112Z,76.52
2018-11-05T12:55:13.649Z,75.66
2018-11-05T12:57:42.621Z,76.18
2018-11-05T13:00:15.840Z,76.55
2018-11-05T13:02:44.763Z,76.07
2018-11-05T13:05:19.849Z,76.27
2018-11-05T13:07:49.303Z,76.58
2018-11-05T13:10:17.930Z,76.51
2018-11-05T13:12:46.572Z,76.13
2018-11-05T13:15:15.116Z,76.00
2018-11-05T13:17:43.637Z,75.62
2018-11-05T13:20:18.634Z,75.22
2018-11-05T13:22:47.609Z,73.81
2018-11-05T13:25:16.143Z,72.98
2018-11-05T13:27:46.207Z,73.03
2018-11-05T13:30:15.308Z,71.93
2018-11-05T13:32:44.661Z,71.07
2018-11-05T13:35:16.460Z,71.30
2018-11-05T13:37:45.690Z,70.60
2018-11-05T13:40:15.799Z,71.16
2018-11-05T13:42:45.078Z,69.87
2018-11-05T13:45:14.489Z,70.65
2018-11-05T13:47:44.848Z,70.77
2018-11-05T13:50:13.473Z,70.53
2018-11-05T13:52:41.865Z,71.20
2018-11-05T13:55:12.694Z,71.46
2018-11-05T13:57:42.185Z,71.26
2018-11-05T14:00:14.209Z,71.63
2018-11-05T14:02:42.705Z,72.14
2018-11-05T14:07:46.466Z,72.21
2018-11-05T14:10:17.572Z,72.89
2018-11-05T14:12:47.376Z,72.32
2018-11-05T14:15:15.737Z,72.81
2018-11-05T14:17:46.318Z,72.72
2018-11-05T14:20:15.821Z,72.21
2018-11-05T14:22:44.747Z,72.51
2018-11-05T14:25:16.831Z,71.96
2018-11-05T14:27:47.501Z,72.41
2018-11-05T14:30:16.380Z,72.59
2018-11-05T14:32:46.283Z,72.17
2018-11-05T14:35:15.263Z,72.46
2018-11-05T14:37:43.853Z,72.56
2018-11-05T14:40:14.148Z,72.50
2018-11-05T14:42:43.229Z,72.94
2018-11-05T14:45:13.847Z,72.51
2018-11-05T14:47:43.691Z,72.96
2018-11-05T14:50:14.130Z,72.97
2018-11-05T14:52:42.762Z,73.00
2018-11-05T14:55:13.757Z,72.86
2018-11-05T14:57:43.153Z,72.99
2018-11-05T15:00:15.333Z,73.12
2018-11-05T15:02:44.530Z,73.19
2018-11-05T15:05:14.477Z,73.65
2018-11-05T15:07:44.065Z,73.89
2018-11-05T15:10:14.181Z,73.85
2018-11-05T15:12:43.152Z,73.48
2018-11-05T15:15:12.867Z,74.60
2018-11-05T15:17:42.149Z,74.24
2018-11-05T15:20:12.943Z,74.22
2018-11-05T15:22:41.366Z,74.80
2018-11-05T15:25:10.433Z,74.71
2018-11-05T15:27:39.804Z,74.63
2018-11-05T15:32:45.719Z,75.64
2018-11-05T15:35:14.607Z,75.08
2018-11-05T15:37:43.452Z,76.00
2018-11-05T15:40:13.958Z,75.77
2018-11-05T15:42:42.466Z,75.49
2018-11-05T15:45:12.536Z,76.03
2018-11-05T15:47:41.601Z,76.31
2018-11-05T15:50:12.228Z,76.18
2018-11-05T15:52:40.996Z,76.20
2018-11-05T15:55:09.527Z,76.82
2018-11-05T15:57:38.974Z,76.58
2018-11-05T16:00:15.552Z,76.85
2018-11-05T16:02:44.905Z,76.76
2018-11-05T16:05:13.341Z,77.01
2018-11-05T16:07:41.832Z,77.47
2018-11-05T16:10:11.066Z,77.33
2018-11-05T16:12:39.749Z,77.27
2018-11-05T16:15:09.445Z,77.42
2018-11-05T16:17:38.746Z,76.72
2018-11-05T16:20:09.204Z,77.58
2018-11-05T16:22:40.276Z,77.88
2018-11-05T16:25:08.783Z,77.72
2018-11-05T16:27:37.921Z,77.94
2018-11-05T16:30:12.837Z,78.05
2018-11-05T16:32:41.908Z,78.24
2018-11-05T16:35:10.698Z,78.05
2018-11-05T16:37:40.381Z,77.97
2018-11-05T16:40:12.774Z,78.33
2018-11-05T16:42:41.872Z,78.17
2018-11-05T16:45:10.868Z,78.36
2018-11-05T16:47:40.995Z,78.43
2018-11-05T16:50:15.908Z,78.49
2018-11-05T16:52:44.461Z,78.73
2018-11-05T16:55:14.062Z,78.75
2018-11-05T16:57:43.226Z,78.89
2018-11-05T17:00:12.425Z,78.90
2018-11-05T17:02:41.435Z,78.99
2018-11-05T17:05:10.614Z,78.75
2018-11-05T17:07:39.393Z,78.98
2018-11-05T17:10:09.344Z,79.06
2018-11-05T17:12:43.936Z,79.07
2018-11-05T17:15:14.038Z,79.05
2018-11-05T17:17:43.867Z,79.07
2018-11-05T17:20:19.367Z,79.06
2018-11-05T17:22:48.086Z,78.91
2018-11-05T17:25:18.929Z,79.08
2018-11-05T17:27:48.157Z,78.94
2018-11-05T17:30:20.134Z,79.19
2018-11-05T17:32:48.830Z,79.08
2018-11-05T17:35:17.716Z,79.25
2018-11-05T17:37:47.095Z,79.24
2018-11-05T17:40:18.144Z,79.27
2018-11-05T17:42:46.671Z,79.06
2018-11-05T17:45:16.535Z,79.23
2018-11-05T17:47:45.367Z,79.24
2018-11-05T17:50:23.509Z,79.12
2018-11-05T17:52:52.471Z,79.30
2018-11-05T17:55:21.033Z,79.10
2018-11-05T17:57:50.018Z,79.23
2018-11-05T18:00:20.004Z,79.24
2018-11-05T18:02:49.190Z,79.45
2018-11-05T18:05:17.875Z,79.48
2018-11-05T18:07:46.957Z,79.27
2018-11-05T18:10:15.949Z,79.54
2018-11-05T18:12:44.588Z,79.46
2018-11-05T18:15:13.635Z,79.43
2018-11-05T18:17:43.241Z,79.93
2018-11-05T18:20:13.190Z,79.89
2018-11-05T18:22:42.209Z,79.97
2018-11-05T18:25:13.388Z,79.73
2018-11-05T18:27:43.342Z,79.81
2018-11-05T18:30:12.615Z,79.89
2018-11-05T18:32:41.483Z,79.82
2018-11-05T18:35:11.529Z,79.92
2018-11-05T18:37:40.624Z,80.11
2018-11-05T18:40:11.541Z,80.19
2018-11-05T18:42:40.934Z,80.06
2018-11-05T18:45:10.100Z,80.35
2018-11-05T18:47:38.832Z,80.52
2018-11-05T18:50:09.428Z,80.32
2018-11-05T18:52:38.089Z,80.56
2018-11-05T18:55:08.533Z,81.02
2018-11-05T18:57:38.256Z,80.66
2018-11-05T19:00:15.989Z,80.69
2018-11-05T19:02:45.057Z,80.56
2018-11-05T19:05:14.002Z,80.65
2018-11-05T19:07:42.647Z,80.49
2018-11-05T19:10:11.391Z,80.51
2018-11-05T19:12:40.230Z,80.34
2018-11-05T19:15:10.587Z,80.54
2018-11-05T19:17:39.351Z,80.50
2018-11-05T19:20:08.735Z,80.37
2018-11-05T19:22:44.532Z,80.15
2018-11-05T19:25:14.432Z,80.23
2018-11-05T19:27:43.538Z,80.19
2018-11-05T19:30:15.714Z,80.23
2018-11-05T19:32:44.562Z,80.37
2018-11-05T19:35:13.704Z,80.48
2018-11-05T19:37:42.851Z,80.24
2018-11-05T19:40:12.680Z,80.36
2018-11-05T19:42:42.380Z,80.10
2018-11-05T19:45:18.830Z,80.33
2018-11-05T19:47:47.404Z,80.21
2018-11-05T19:50:17.487Z,80.24
2018-11-05T19:52:47.164Z,80.22
2018-11-05T19:55:16.792Z,80.19
2018-11-05T19:57:46.272Z,80.03
2018-11-05T20:00:17.594Z,80.38
2018-11-05T20:02:47.152Z,80.20
2018-11-05T20:05:16.260Z,80.33
2018-11-05T20:07:45.321Z,80.48
2018-11-05T20:12:48.726Z,80.58
2018-11-05T20:15:17.696Z,80.35
2018-11-05T20:17:47.258Z,80.28
2018-11-05T20:20:17.500Z,80.23
2018-11-05T20:22:46.204Z,80.40
2018-11-05T20:25:14.888Z,80.44
2018-11-05T20:27:43.666Z,80.09
2018-11-05T20:30:17.768Z,80.22
2018-11-05T20:32:47.806Z,80.21
2018-11-05T20:35:16.243Z,80.13
2018-11-05T20:37:44.837Z,79.95
2018-11-05T20:40:15.951Z,80.23
2018-11-05T20:42:45.684Z,79.85
2018-11-05T20:45:15.529Z,80.38
2018-11-05T20:47:44.480Z,80.22
2018-11-05T20:50:14.246Z,79.94
2018-11-05T20:52:43.033Z,80.03
2018-11-05T20:55:13.049Z,80.00
2018-11-05T20:57:42.625Z,79.88
2018-11-05T21:00:13.584Z,80.15
2018-11-05T21:02:42.923Z,80.22
2018-11-05T21:05:11.619Z,80.33
2018-11-05T21:07:41.598Z,80.42
2018-11-05T21:10:11.859Z,80.22
2018-11-05T21:12:41.441Z,80.61
2018-11-05T21:15:14.777Z,80.60
2018-11-05T21:17:44.240Z,80.74
2018-11-05T21:20:13.340Z,80.76
2018-11-05T21:22:45.296Z,80.99
2018-11-05T21:25:20.355Z,80.71
2018-11-05T21:27:49.275Z,80.95
2018-11-05T21:30:19.924Z,80.83
2018-11-05T21:32:48.788Z,81.34
2018-11-05T21:35:18.876Z,81.22
2018-11-05T21:37:48.459Z,81.64
2018-11-05T21:40:17.848Z,81.51
2018-11-05T21:42:46.691Z,81.59
2018-11-05T21:45:16.207Z,81.58
2018-11-05T21:47:45.580Z,81.89
2018-11-05T21:50:19.439Z,82.10
2018-11-05T21:52:48.645Z,82.06
2018-11-05T21:55:17.289Z,82.17
2018-11-05T21:57:47.241Z,82.38
2018-11-05T22:00:18.364Z,82.16
2018-11-05T22:02:52.056Z,82.38
2018-11-05T22:05:21.276Z,82.30
2018-11-05T22:07:50.243Z,82.64
2018-11-05T22:10:18.945Z,83.00
2018-11-05T22:12:48.956Z,82.88
2018-11-05T22:15:17.724Z,82.96
2018-11-05T22:17:46.216Z,83.11
2018-11-05T22:20:14.917Z,83.14
2018-11-05T22:22:43.661Z,83.11
2018-11-05T22:25:12.337Z,83.38
2018-11-05T22:27:40.957Z,83.53
2018-11-05T22:30:11.175Z,83.70
2018-11-05T22:32:39.653Z,83.68
2018-11-05T22:35:08.331Z,83.54
2018-11-05T22:37:37.608Z,83.87
2018-11-05T22:42:44.310Z,83.50
2018-11-05T22:45:14.368Z,84.11
2018-11-05T22:47:43.630Z,84.01
2018-11-05T22:50:12.480Z,84.23
2018-11-05T22:52:41.846Z,84.48
2018-11-05T22:55:11.086Z,84.28
2018-11-05T22:57:39.765Z,84.53
2018-11-05T23:00:17.626Z,84.27
2018-11-05T23:02:51.460Z,84.26
2018-11-05T23:05:20.467Z,84.51
2018-11-05T23:07:50.425Z,84.25
2018-11-05T23:10:19.062Z,84.44
2018-11-05T23:12:47.531Z,84.22
2018-11-05T23:15:16.348Z,84.62
2018-11-05T23:17:45.176Z,84.41
2018-11-05T23:20:13.624Z,84.44
2018-11-05T23:25:17.589Z,84.60
2018-11-05T23:27:46.346Z,84.50
2018-11-05T23:30:14.806Z,84.56
2018-11-05T23:32:43.432Z,84.95
2018-11-05T23:35:12.940Z,84.44
2018-11-05T23:37:42.378Z,84.87
2018-11-05T23:40:11.725Z,85.31
2018-11-05T23:42:40.544Z,85.24
2018-11-05T23:45:13.162Z,84.75
2018-11-05T23:47:41.784Z,85.02
2018-11-05T23:50:10.911Z,84.95
2018-11-05T23:52:39.840Z,84.92
2018-11-05T23:55:09.151Z,84.96
2018-11-05T23:57:37.655Z,84.86
